createdAt,value
2022-11-18T00:00:08.801Z,9.757510
2022-11-18T00:01:08.655Z,9.757537
2022-11-18T00:02:08.703Z,9.757565
2022-11-18T00:03:08.672Z,9.757536
2022-11-18T00:04:08.632Z,9.757410
2022-11-18T00:05:08.623Z,9.757385
2022-11-18T00:06:08.608Z,9.757461
2022-11-18T00:07:08.613Z,9.757671
2022-11-18T00:08:08.740Z,9.757593
2022-11-18T00:09:09.121Z,9.757557
2022-11-18T00:10:09.576Z,9.757565
2022-11-18T00:11:08.572Z,9.757519
2022-11-18T00:12:08.565Z,9.757358
2022-11-18T00:13:08.578Z,9.757405
2022-11-18T00:14:08.551Z,9.757260
2022-11-18T00:15:08.534Z,9.757168
2022-11-18T00:16:08.531Z,9.757464
2022-11-18T00:17:08.552Z,9.757523
2022-11-18T00:18:08.554Z,9.757545
2022-11-18T00:19:08.535Z,9.757424
2022-11-18T00:20:08.501Z,9.757354
2022-11-18T00:21:08.497Z,9.757422
2022-11-18T00:22:08.482Z,9.758861
2022-11-18T00:23:08.557Z,9.758135
2022-11-18T00:24:08.486Z,9.757298
2022-11-18T00:25:08.454Z,9.757323
2022-11-18T00:26:08.454Z,9.757392
2022-11-18T00:27:08.446Z,9.757300
2022-11-18T00:28:08.463Z,9.757635
2022-11-18T00:29:08.423Z,9.757460
2022-11-18T00:30:08.418Z,9.757375
2022-11-18T00:31:08.407Z,9.757319
2022-11-18T00:32:08.396Z,9.757321
2022-11-18T00:33:08.395Z,9.757394
2022-11-18T00:34:08.409Z,9.757323
2022-11-18T00:35:08.375Z,9.757338
2022-11-18T00:36:08.378Z,9.757423
2022-11-18T00:37:08.365Z,9.757282
2022-11-18T00:38:08.343Z,9.757294
2022-11-18T00:39:08.374Z,9.757353
2022-11-18T00:40:08.342Z,9.757358
2022-11-18T00:41:08.321Z,9.757441
2022-11-18T00:42:08.319Z,9.757427
2022-11-18T00:43:08.312Z,9.757389
2022-11-18T00:44:09.704Z,9.757455
2022-11-18T00:45:09.298Z,9.757526
2022-11-18T00:46:08.436Z,9.757613
2022-11-18T00:47:08.285Z,9.757501
2022-11-18T00:48:08.268Z,9.757534
2022-11-18T00:49:08.290Z,9.757489
2022-11-18T00:50:08.242Z,9.757603
2022-11-18T00:51:09.271Z,9.757621
2022-11-18T00:52:08.232Z,9.757562
2022-11-18T00:53:08.224Z,9.757580
2022-11-18T00:54:08.241Z,9.757608
2022-11-18T00:55:08.210Z,9.757561
2022-11-18T00:56:08.197Z,9.757575
2022-11-18T00:57:08.191Z,9.757546
2022-11-18T00:58:08.181Z,9.757519
2022-11-18T00:59:08.212Z,9.757491
2022-11-18T01:00:08.168Z,9.757498
2022-11-18T01:01:08.361Z,9.757489
2022-11-18T01:02:08.152Z,9.757508
2022-11-18T01:03:08.139Z,9.757568
2022-11-18T01:04:08.163Z,9.757553
2022-11-18T01:05:08.125Z,9.757569
2022-11-18T01:06:08.138Z,9.757548
2022-11-18T01:07:08.234Z,9.757566
2022-11-18T01:08:08.101Z,9.757560
2022-11-18T01:09:08.221Z,9.757612
2022-11-18T01:10:08.090Z,9.757556
2022-11-18T01:11:08.067Z,9.757542
2022-11-18T01:12:08.122Z,9.757679
2022-11-18T01:13:08.078Z,9.757642
2022-11-18T01:14:08.079Z,9.757607
2022-11-18T01:15:08.095Z,9.757538
2022-11-18T01:16:08.035Z,9.757539
2022-11-18T01:17:08.026Z,9.757575
2022-11-18T01:18:08.012Z,9.757559
2022-11-18T01:19:08.035Z,9.757560
2022-11-18T01:20:09.012Z,9.757585
2022-11-18T01:21:07.991Z,9.757634
2022-11-18T01:22:08.985Z,9.757500
2022-11-18T01:23:07.998Z,9.757488
2022-11-18T01:24:07.999Z,9.757507
2022-11-18T01:25:07.968Z,9.757500
2022-11-18T01:26:07.950Z,9.757423
2022-11-18T01:27:07.952Z,9.757409
2022-11-18T01:28:07.937Z,9.757578
2022-11-18T01:29:07.958Z,9.757646
2022-11-18T01:30:07.944Z,9.757504
2022-11-18T01:31:07.912Z,9.757551
2022-11-18T01:32:24.875Z,9.757573
2022-11-18T01:33:09.925Z,9.757624
2022-11-18T01:34:07.918Z,9.757542
2022-11-18T01:35:07.880Z,9.757382
2022-11-18T01:36:07.862Z,9.757475
2022-11-18T01:37:07.870Z,9.757357
2022-11-18T01:38:07.851Z,9.757489
2022-11-18T01:39:07.876Z,9.757465
2022-11-18T01:40:07.835Z,9.757391
2022-11-18T01:41:07.828Z,9.757431
2022-11-18T01:42:07.827Z,9.757672
2022-11-18T01:43:07.819Z,9.757617
2022-11-18T01:44:07.859Z,9.757642
2022-11-18T01:45:07.813Z,9.757578
2022-11-18T01:46:07.787Z,9.757678
2022-11-18T01:47:07.789Z,9.757496
2022-11-18T01:48:07.777Z,9.757524
2022-11-18T01:49:07.790Z,9.757523
2022-11-18T01:50:07.852Z,9.757501
2022-11-18T01:51:07.755Z,9.757600
2022-11-18T01:52:07.747Z,9.757577
2022-11-18T01:53:07.738Z,9.757479
2022-11-18T01:54:07.764Z,9.757535
2022-11-18T01:55:07.719Z,9.757421
2022-11-18T01:56:07.712Z,9.757425
2022-11-18T01:57:07.700Z,9.757318
2022-11-18T01:58:07.677Z,9.757302
2022-11-18T01:59:08.713Z,9.757415
2022-11-18T02:00:07.678Z,9.757578
2022-11-18T02:01:07.711Z,9.757439
2022-11-18T02:02:08.663Z,9.757375
2022-11-18T02:03:07.649Z,9.757465
2022-11-18T02:04:07.676Z,9.757347
2022-11-18T02:05:07.660Z,9.757273
2022-11-18T02:06:07.710Z,9.757268
2022-11-18T02:07:07.679Z,9.757446
2022-11-18T02:08:07.622Z,9.757506
2022-11-18T02:09:07.648Z,9.757184
2022-11-18T02:10:07.609Z,9.757349
2022-11-18T02:11:07.599Z,9.757336
2022-11-18T02:12:07.647Z,9.757395
2022-11-18T02:13:07.592Z,9.757338
2022-11-18T02:14:07.569Z,9.757233
2022-11-18T02:15:07.596Z,9.757496
2022-11-18T02:16:07.563Z,9.757405
2022-11-18T02:17:07.551Z,9.757386
2022-11-18T02:18:07.539Z,9.757346
2022-11-18T02:19:07.531Z,9.757431
2022-11-18T02:20:07.549Z,9.757459
2022-11-18T02:21:07.513Z,9.757557
2022-11-18T02:22:07.509Z,9.757678
2022-11-18T02:23:07.494Z,9.757504
2022-11-18T02:24:07.495Z,9.757531
2022-11-18T02:25:07.505Z,9.757530
2022-11-18T02:26:07.481Z,9.757606
2022-11-18T02:27:07.462Z,9.757548
2022-11-18T02:28:07.451Z,9.757554
2022-11-18T02:29:07.466Z,9.757488
2022-11-18T02:30:07.459Z,9.757595
2022-11-18T02:31:07.450Z,9.757524
2022-11-18T02:32:07.432Z,9.757653
2022-11-18T02:33:07.425Z,9.757533
2022-11-18T02:34:07.392Z,9.757477
2022-11-18T02:35:08.433Z,9.757474
2022-11-18T02:36:07.382Z,9.757513
2022-11-18T02:37:08.380Z,9.757507
2022-11-18T02:38:07.377Z,9.757599
2022-11-18T02:39:07.362Z,9.757471
2022-11-18T02:40:07.382Z,9.757420
2022-11-18T02:41:07.355Z,9.757347
2022-11-18T02:42:07.471Z,9.757566
2022-11-18T02:43:07.339Z,9.757408
2022-11-18T02:44:07.320Z,9.757600
2022-11-18T02:45:07.345Z,9.757673
2022-11-18T02:46:07.307Z,9.757613
2022-11-18T02:47:07.294Z,9.757663
2022-11-18T02:48:07.431Z,9.757788
2022-11-18T02:49:07.282Z,9.757877
2022-11-18T02:50:07.299Z,9.758002
2022-11-18T02:51:07.269Z,9.757888
2022-11-18T02:52:07.255Z,9.757875
2022-11-18T02:53:07.254Z,9.757853
2022-11-18T02:54:07.240Z,9.757889
2022-11-18T02:55:07.277Z,9.757603
2022-11-18T02:56:07.250Z,9.757835
2022-11-18T02:57:07.215Z,9.758126
2022-11-18T02:58:07.395Z,9.757908
2022-11-18T02:59:07.200Z,9.757952
2022-11-18T03:00:07.226Z,9.757581
2022-11-18T03:01:07.468Z,9.757620
2022-11-18T03:02:07.178Z,9.757495
2022-11-18T03:03:07.219Z,9.757586
2022-11-18T03:04:07.163Z,9.757493
2022-11-18T03:05:07.189Z,9.757598
2022-11-18T03:06:07.170Z,9.757412
2022-11-18T03:07:07.196Z,9.757327
2022-11-18T03:08:07.127Z,9.757341
2022-11-18T03:09:07.118Z,9.757415
2022-11-18T03:10:07.146Z,9.757530
2022-11-18T03:11:07.107Z,9.757599
2022-11-18T03:12:07.099Z,9.757672
2022-11-18T03:13:07.092Z,9.757564
2022-11-18T03:14:07.343Z,9.757495
2022-11-18T03:15:08.100Z,9.757586
2022-11-18T03:16:07.061Z,9.757687
2022-11-18T03:17:08.082Z,9.757791
2022-11-18T03:18:07.050Z,9.757751
2022-11-18T03:19:07.037Z,9.757741
2022-11-18T03:20:07.129Z,9.757786
2022-11-18T03:21:07.020Z,9.757676
2022-11-18T03:22:07.014Z,9.757636
2022-11-18T03:23:07.013Z,9.757628
2022-11-18T03:24:06.993Z,9.757687
2022-11-18T03:25:06.992Z,9.757720
2022-11-18T03:26:07.010Z,9.757536
2022-11-18T03:27:06.970Z,9.757878
2022-11-18T03:28:06.984Z,9.757938
2022-11-18T03:29:07.029Z,9.757852
2022-11-18T03:30:07.021Z,9.757447
2022-11-18T03:31:06.961Z,9.757478
2022-11-18T03:32:07.924Z,9.757538
2022-11-18T03:33:06.911Z,9.757540
2022-11-18T03:34:06.908Z,9.757530
2022-11-18T03:35:06.899Z,9.757491
2022-11-18T03:36:06.926Z,9.757373
2022-11-18T03:37:10.439Z,9.757421
2022-11-18T03:38:07.902Z,9.757470
2022-11-18T03:39:06.872Z,9.757453
2022-11-18T03:40:06.860Z,9.757443
2022-11-18T03:41:06.923Z,9.757418
2022-11-18T03:42:06.840Z,9.757431
2022-11-18T03:43:06.842Z,9.757457
2022-11-18T03:44:06.844Z,9.757352
2022-11-18T03:45:06.816Z,9.757414
2022-11-18T03:46:06.837Z,9.757413
2022-11-18T03:47:06.816Z,9.757422
2022-11-18T03:48:06.796Z,9.757419
2022-11-18T03:49:06.800Z,9.757453
2022-11-18T03:50:06.781Z,9.757380
2022-11-18T03:51:06.809Z,9.757408
2022-11-18T03:52:06.771Z,9.757425
2022-11-18T03:53:06.760Z,9.757530
2022-11-18T03:54:06.747Z,9.757444
2022-11-18T03:55:06.739Z,9.757415
2022-11-18T03:56:06.758Z,9.757380
2022-11-18T03:57:06.720Z,9.757414
2022-11-18T03:58:06.713Z,9.757436
2022-11-18T03:59:06.697Z,9.757430
2022-11-18T04:00:06.849Z,9.757431
2022-11-18T04:01:06.723Z,9.757564
2022-11-18T04:02:06.757Z,9.757581
2022-11-18T04:03:06.669Z,9.757487
2022-11-18T04:04:06.665Z,9.757621
2022-11-18T04:05:06.656Z,9.757479
2022-11-18T04:06:06.667Z,9.757420
2022-11-18T04:07:06.714Z,9.757374
2022-11-18T04:08:06.636Z,9.757489
2022-11-18T04:09:06.617Z,9.757415
2022-11-18T04:10:06.616Z,9.757417
2022-11-18T04:11:06.637Z,9.757537
2022-11-18T04:12:06.598Z,9.757536
2022-11-18T04:13:07.043Z,9.757499
2022-11-18T04:14:06.576Z,9.757536
2022-11-18T04:15:06.566Z,9.757582
2022-11-18T04:16:06.584Z,9.757504
2022-11-18T04:17:06.552Z,9.757469
2022-11-18T04:18:06.546Z,9.757415
2022-11-18T04:19:06.700Z,9.757330
2022-11-18T04:20:06.534Z,9.757616
2022-11-18T04:21:06.560Z,9.757468
2022-11-18T04:22:06.512Z,9.757439
2022-11-18T04:23:06.509Z,9.757406
2022-11-18T04:24:06.503Z,9.757570
2022-11-18T04:25:06.491Z,9.757339
2022-11-18T04:26:06.507Z,9.757483
2022-11-18T04:27:06.481Z,9.757292
2022-11-18T04:28:06.459Z,9.757454
2022-11-18T04:29:06.498Z,9.757534
2022-11-18T04:30:06.450Z,9.757568
2022-11-18T04:31:06.473Z,9.757641
2022-11-18T04:32:06.459Z,9.757578
2022-11-18T04:33:06.430Z,9.757289
2022-11-18T04:34:06.427Z,9.757393
2022-11-18T04:35:06.420Z,9.757524
2022-11-18T04:36:06.438Z,9.757496
2022-11-18T04:37:06.473Z,9.757394
2022-11-18T04:38:06.382Z,9.757535
2022-11-18T04:39:06.378Z,9.757607
2022-11-18T04:40:06.378Z,9.757702
2022-11-18T04:41:06.398Z,9.757708
2022-11-18T04:42:06.386Z,9.757562
2022-11-18T04:43:06.358Z,9.757531
2022-11-18T04:44:06.342Z,9.757463
2022-11-18T04:45:06.336Z,9.757596
2022-11-18T04:46:06.355Z,9.757575
2022-11-18T04:47:06.316Z,9.757484
2022-11-18T04:48:06.309Z,9.757562
2022-11-18T04:49:06.292Z,9.757525
2022-11-18T04:50:07.299Z,9.757670
2022-11-18T04:51:06.288Z,9.757706
2022-11-18T04:52:06.310Z,9.757670
2022-11-18T04:53:06.276Z,9.757854
2022-11-18T04:54:06.256Z,9.757963
2022-11-18T04:55:06.253Z,9.757654
2022-11-18T04:56:06.261Z,9.757668
2022-11-18T04:57:06.263Z,9.757447
2022-11-18T04:58:06.224Z,9.757434
2022-11-18T04:59:06.222Z,9.757497
2022-11-18T05:00:06.210Z,9.757536
2022-11-18T05:01:06.253Z,9.757569
2022-11-18T05:02:06.214Z,9.757683
2022-11-18T05:03:06.189Z,9.757627
2022-11-18T05:04:06.182Z,9.757605
2022-11-18T05:05:06.165Z,9.757599
2022-11-18T05:06:06.170Z,9.757641
2022-11-18T05:07:06.516Z,9.757619
2022-11-18T05:08:06.148Z,9.757601
2022-11-18T05:09:06.134Z,9.757490
2022-11-18T05:10:06.119Z,9.757565
2022-11-18T05:11:06.115Z,9.757608
2022-11-18T05:12:06.142Z,9.757621
2022-11-18T05:13:06.108Z,9.757514
2022-11-18T05:14:06.096Z,9.757423
2022-11-18T05:15:06.081Z,9.757528
2022-11-18T05:16:06.106Z,9.757534
2022-11-18T05:17:06.089Z,9.757549
2022-11-18T05:18:06.058Z,9.757647
2022-11-18T05:19:06.069Z,9.757627
2022-11-18T05:20:06.055Z,9.757596
2022-11-18T05:21:06.034Z,9.757609
2022-11-18T05:22:06.061Z,9.757574
2022-11-18T05:23:06.040Z,9.757514
2022-11-18T05:24:06.027Z,9.757559
2022-11-18T05:25:06.031Z,9.757560
2022-11-18T05:26:05.984Z,9.757550
2022-11-18T05:27:06.013Z,9.757545
2022-11-18T05:28:05.973Z,9.757492
2022-11-18T05:29:05.963Z,9.757580
2022-11-18T05:30:05.951Z,9.757529
2022-11-18T05:31:05.942Z,9.757590
2022-11-18T05:32:06.107Z,9.757487
2022-11-18T05:33:05.938Z,9.757428
2022-11-18T05:34:05.925Z,9.757488
2022-11-18T05:35:05.916Z,9.757504
2022-11-18T05:36:05.907Z,9.757435
2022-11-18T05:37:06.138Z,9.757472
2022-11-18T05:38:05.901Z,9.757463
2022-11-18T05:39:05.878Z,9.757444
2022-11-18T05:40:05.875Z,9.757473
2022-11-18T05:41:05.866Z,9.757481
2022-11-18T05:42:06.135Z,9.757515
2022-11-18T05:43:05.848Z,9.757489
2022-11-18T05:44:05.844Z,9.757491
2022-11-18T05:45:05.834Z,9.757580
2022-11-18T05:46:05.823Z,9.757567
2022-11-18T05:47:05.845Z,9.757507
2022-11-18T05:48:05.810Z,9.757471
2022-11-18T05:49:05.806Z,9.757488
2022-11-18T05:50:05.785Z,9.757627
2022-11-18T05:51:05.792Z,9.757548
2022-11-18T05:52:05.815Z,9.757481
2022-11-18T05:53:05.767Z,9.757400
2022-11-18T05:54:05.760Z,9.757605
2022-11-18T05:55:05.750Z,9.757710
2022-11-18T05:56:05.779Z,9.757740
2022-11-18T05:57:05.773Z,9.757520
2022-11-18T05:58:06.733Z,9.757415
2022-11-18T05:59:05.724Z,9.757660
2022-11-18T06:00:05.711Z,9.757555
2022-11-18T06:01:05.708Z,9.757478
2022-11-18T06:02:05.889Z,9.757422
2022-11-18T06:03:05.729Z,9.757586
2022-11-18T06:04:05.678Z,9.757425
2022-11-18T06:05:05.672Z,9.757773
2022-11-18T06:06:05.782Z,9.758037
2022-11-18T06:07:05.700Z,9.757654
2022-11-18T06:08:05.678Z,9.757496
2022-11-18T06:09:05.722Z,9.757582
2022-11-18T06:10:06.288Z,9.757514
2022-11-18T06:11:06.629Z,9.757596
2022-11-18T06:12:05.653Z,9.757902
2022-11-18T06:13:05.603Z,9.757538
2022-11-18T06:14:05.604Z,9.757588
2022-11-18T06:15:05.585Z,9.757777
2022-11-18T06:16:05.590Z,9.757929
2022-11-18T06:17:05.576Z,9.757507
2022-11-18T06:18:05.598Z,9.757357
2022-11-18T06:19:05.552Z,9.757806
2022-11-18T06:20:05.548Z,9.757779
2022-11-18T06:21:05.552Z,9.757729
2022-11-18T06:22:05.537Z,9.757701
2022-11-18T06:23:05.560Z,9.757625
2022-11-18T06:24:05.519Z,9.757511
2022-11-18T06:25:05.510Z,9.757681
2022-11-18T06:26:05.507Z,9.757573
2022-11-18T06:27:05.494Z,9.757796
2022-11-18T06:28:05.508Z,9.757724
2022-11-18T06:29:05.481Z,9.757558
2022-11-18T06:30:05.466Z,9.757698
2022-11-18T06:31:05.463Z,9.757899
2022-11-18T06:32:05.450Z,9.757469
2022-11-18T06:33:05.478Z,9.757328
2022-11-18T06:34:05.440Z,9.757722
2022-11-18T06:35:05.424Z,9.757465
2022-11-18T06:36:05.424Z,9.757323
2022-11-18T06:37:05.409Z,9.757598
2022-11-18T06:38:05.431Z,9.757481
2022-11-18T06:39:05.387Z,9.757728
2022-11-18T06:40:06.384Z,9.757549
2022-11-18T06:41:05.373Z,9.757377
2022-11-18T06:42:05.367Z,9.757176
2022-11-18T06:43:05.391Z,9.757451
2022-11-18T06:44:05.364Z,9.757425
2022-11-18T06:45:05.407Z,9.757463
2022-11-18T06:46:09.044Z,9.757584
2022-11-18T06:47:06.330Z,9.757395
2022-11-18T06:48:05.352Z,9.757511
2022-11-18T06:49:05.316Z,9.757435
2022-11-18T06:50:05.311Z,9.757528
2022-11-18T06:51:05.290Z,9.757530
2022-11-18T06:52:05.291Z,9.757558
2022-11-18T06:53:05.308Z,9.757528
2022-11-18T06:54:10.461Z,9.757466
2022-11-18T06:55:07.263Z,9.757602
2022-11-18T06:56:05.252Z,9.757464
2022-11-18T06:57:05.245Z,9.757556
2022-11-18T06:58:05.263Z,9.757336
2022-11-18T06:59:05.224Z,9.757464
2022-11-18T07:00:05.273Z,9.757379
2022-11-18T07:01:05.268Z,9.757522
2022-11-18T07:02:05.197Z,9.757524
2022-11-18T07:03:05.231Z,9.757408
2022-11-18T07:04:05.209Z,9.757443
2022-11-18T07:05:05.177Z,9.757301
2022-11-18T07:06:05.156Z,9.757400
2022-11-18T07:07:06.240Z,9.757343
2022-11-18T07:08:05.177Z,9.757524
2022-11-18T07:09:05.144Z,9.757547
2022-11-18T07:10:05.138Z,9.757458
2022-11-18T07:11:05.124Z,9.757510
2022-11-18T07:12:05.141Z,9.757412
2022-11-18T07:13:05.168Z,9.757495
2022-11-18T07:14:05.104Z,9.757398
2022-11-18T07:15:05.087Z,9.757530
2022-11-18T07:16:05.086Z,9.757612
2022-11-18T07:17:05.080Z,9.757472
2022-11-18T07:18:05.103Z,9.757386
2022-11-18T07:19:05.061Z,9.757605
2022-11-18T07:20:05.055Z,9.757535
2022-11-18T07:21:05.050Z,9.757502
2022-11-18T07:22:05.081Z,9.757372
2022-11-18T07:23:05.054Z,9.757563
2022-11-18T07:24:05.032Z,9.757351
2022-11-18T07:25:05.010Z,9.757427
2022-11-18T07:26:05.000Z,9.757470
2022-11-18T07:27:04.987Z,9.757510
2022-11-18T07:28:05.009Z,9.757460
2022-11-18T07:29:04.969Z,9.757517
2022-11-18T07:30:04.973Z,9.757539
2022-11-18T07:31:04.957Z,9.757520
2022-11-18T07:32:04.952Z,9.757628
2022-11-18T07:33:04.979Z,9.757501
2022-11-18T07:34:04.930Z,9.757410
2022-11-18T07:35:04.928Z,9.757373
2022-11-18T07:36:04.915Z,9.757428
2022-11-18T07:37:04.908Z,9.757648
2022-11-18T07:38:04.936Z,9.757577
2022-11-18T07:39:04.919Z,9.757678
2022-11-18T07:40:04.896Z,9.757625
2022-11-18T07:41:04.875Z,9.757602
2022-11-18T07:42:04.871Z,9.757997
2022-11-18T07:43:04.855Z,9.757659
2022-11-18T07:44:04.889Z,9.757686
2022-11-18T07:45:05.856Z,9.757574
2022-11-18T07:46:04.835Z,9.757752
2022-11-18T07:47:04.838Z,9.757485
2022-11-18T07:48:04.813Z,9.757451
2022-11-18T07:49:04.847Z,9.757914
2022-11-18T07:50:04.803Z,9.757639
2022-11-18T07:51:04.788Z,9.757600
2022-11-18T07:52:04.806Z,9.757928
2022-11-18T07:53:04.780Z,9.757733
2022-11-18T07:54:04.796Z,9.757487
2022-11-18T07:55:04.753Z,9.757404
2022-11-18T07:56:04.755Z,9.757452
2022-11-18T07:57:04.745Z,9.757513
2022-11-18T07:58:04.743Z,9.757491
2022-11-18T07:59:04.820Z,9.757397
2022-11-18T08:00:04.745Z,9.757493
2022-11-18T08:01:04.765Z,9.757442
2022-11-18T08:02:04.764Z,9.757372
2022-11-18T08:03:04.694Z,9.757495
2022-11-18T08:04:04.812Z,9.757426
2022-11-18T08:05:04.710Z,9.757480
2022-11-18T08:06:04.674Z,9.757553
2022-11-18T08:07:04.732Z,9.757439
2022-11-18T08:08:04.651Z,9.757567
2022-11-18T08:09:04.681Z,9.757375
2022-11-18T08:10:04.633Z,9.757517
2022-11-18T08:11:05.633Z,9.757333
2022-11-18T08:12:04.640Z,9.757391
2022-11-18T08:13:04.613Z,9.757460
2022-11-18T08:14:04.634Z,9.757507
2022-11-18T08:15:04.596Z,9.757437
2022-11-18T08:16:04.590Z,9.757493
2022-11-18T08:17:04.593Z,9.757575
2022-11-18T08:18:05.812Z,9.757676
2022-11-18T08:19:04.594Z,9.757447
2022-11-18T08:20:04.553Z,9.757424
2022-11-18T08:21:04.556Z,9.757413
2022-11-18T08:22:04.544Z,9.757556
2022-11-18T08:23:04.538Z,9.757555
2022-11-18T08:24:04.558Z,9.757542
2022-11-18T08:25:04.511Z,9.757731
2022-11-18T08:26:04.506Z,9.757638
2022-11-18T08:27:04.513Z,9.757498
2022-11-18T08:28:04.485Z,9.757420
2022-11-18T08:29:04.519Z,9.757402
2022-11-18T08:30:04.490Z,9.757529
2022-11-18T08:31:04.460Z,9.757616
2022-11-18T08:32:04.453Z,9.757413
2022-11-18T08:33:04.447Z,9.757317
2022-11-18T08:34:04.463Z,9.757547
2022-11-18T08:35:10.657Z,9.757513
2022-11-18T08:36:06.424Z,9.757577
2022-11-18T08:37:04.421Z,9.757515
2022-11-18T08:38:04.407Z,9.757474
2022-11-18T08:39:04.438Z,9.757431
2022-11-18T08:40:04.387Z,9.757530
2022-11-18T08:41:04.387Z,9.757550
2022-11-18T08:42:04.370Z,9.757481
2022-11-18T08:43:04.370Z,9.757462
2022-11-18T08:44:04.384Z,9.757556
2022-11-18T08:45:04.346Z,9.757447
2022-11-18T08:46:04.344Z,9.757421
2022-11-18T08:47:04.329Z,9.757439
2022-11-18T08:48:04.318Z,9.757447
2022-11-18T08:49:04.341Z,9.757444
2022-11-18T08:50:04.340Z,9.757424
2022-11-18T08:51:04.300Z,9.757450
2022-11-18T08:52:04.293Z,9.757465
2022-11-18T08:53:04.288Z,9.757526
2022-11-18T08:54:04.299Z,9.757543
2022-11-18T08:55:04.273Z,9.757532
2022-11-18T08:56:04.258Z,9.757481
2022-11-18T08:57:04.247Z,9.757491
2022-11-18T08:58:04.236Z,9.757480
2022-11-18T08:59:04.246Z,9.757537
2022-11-18T09:00:04.260Z,9.757503
2022-11-18T09:01:04.238Z,9.757474
2022-11-18T09:02:04.216Z,9.757447
2022-11-18T09:03:04.197Z,9.757557
2022-11-18T09:04:04.176Z,9.757518
2022-11-18T09:05:05.210Z,9.757540
2022-11-18T09:06:04.171Z,9.757453
2022-11-18T09:07:04.200Z,9.757581
2022-11-18T09:08:04.142Z,9.757588
2022-11-18T09:09:06.506Z,9.757519
2022-11-18T09:10:05.183Z,9.757673
2022-11-18T09:11:04.131Z,9.757549
2022-11-18T09:12:04.122Z,9.757549
2022-11-18T09:13:33.421Z,9.757671
2022-11-18T09:15:11.731Z,9.757580
2022-11-18T09:15:13.420Z,9.757529
2022-11-18T09:16:06.090Z,9.757505
2022-11-18T09:17:04.078Z,9.757545
2022-11-18T09:18:05.069Z,9.757634
2022-11-18T09:19:18.573Z,9.757570
2022-11-18T09:20:06.079Z,9.757573
2022-11-18T09:21:04.058Z,9.757749
2022-11-18T09:22:04.045Z,9.757535
2022-11-18T09:23:04.023Z,9.757540
2022-11-18T09:24:04.026Z,9.757659
2022-11-18T09:25:04.040Z,9.757644
2022-11-18T09:26:03.998Z,9.757633
2022-11-18T09:27:03.989Z,9.757588
2022-11-18T09:28:04.006Z,9.757528
2022-11-18T09:29:03.977Z,9.757536
2022-11-18T09:30:03.998Z,9.757490
2022-11-18T09:31:03.971Z,9.757465
2022-11-18T09:32:04.123Z,9.757421
2022-11-18T09:33:03.948Z,9.757481
2022-11-18T09:34:03.941Z,9.757615
2022-11-18T09:35:03.959Z,9.757605
2022-11-18T09:36:03.917Z,9.757485
2022-11-18T09:37:03.906Z,9.757455
2022-11-18T09:38:03.907Z,9.757452
2022-11-18T09:39:03.892Z,9.757483
2022-11-18T09:40:03.918Z,9.757471
2022-11-18T09:41:03.878Z,9.757339
2022-11-18T09:42:03.876Z,9.757339
2022-11-18T09:43:03.862Z,9.757341
2022-11-18T09:44:03.864Z,9.757279
2022-11-18T09:45:07.344Z,9.757338
2022-11-18T09:46:04.839Z,9.757448
2022-11-18T09:47:03.841Z,9.757464
2022-11-18T09:48:03.823Z,9.757367
2022-11-18T09:49:03.822Z,9.757218
2022-11-18T09:50:20.320Z,9.757328
2022-11-18T09:51:05.796Z,9.757360
2022-11-18T09:52:03.796Z,9.757367
2022-11-18T09:53:03.800Z,9.757393
2022-11-18T09:54:03.773Z,9.757480
2022-11-18T09:55:03.795Z,9.757422
2022-11-18T09:56:04.877Z,9.757461
2022-11-18T09:57:03.751Z,9.757428
2022-11-18T09:58:03.763Z,9.757331
2022-11-18T09:59:03.741Z,9.757379
2022-11-18T10:00:03.749Z,9.757414
2022-11-18T10:01:04.715Z,9.757592
2022-11-18T10:02:03.810Z,9.757399
2022-11-18T10:03:03.700Z,9.757349
2022-11-18T10:04:03.696Z,9.757347
2022-11-18T10:05:03.757Z,9.755431
2022-11-18T10:06:03.743Z,9.756627
2022-11-18T10:07:03.744Z,9.757173
2022-11-18T10:08:03.668Z,9.757014
2022-11-18T10:09:03.662Z,9.757144
2022-11-18T10:10:03.685Z,9.757235
2022-11-18T10:11:03.650Z,9.757316
2022-11-18T10:12:03.637Z,9.757351
2022-11-18T10:13:03.673Z,9.757241
2022-11-18T10:14:03.632Z,9.757264
2022-11-18T10:15:03.610Z,9.757189
2022-11-18T10:16:03.635Z,9.757278
2022-11-18T10:17:03.594Z,9.757320
2022-11-18T10:18:03.590Z,9.757298
2022-11-18T10:19:03.598Z,9.757364
2022-11-18T10:20:03.569Z,9.757320
2022-11-18T10:21:04.603Z,9.757306
2022-11-18T10:22:03.561Z,9.757216
2022-11-18T10:23:03.554Z,9.757286
2022-11-18T10:24:03.540Z,9.757290
2022-11-18T10:25:03.531Z,9.757279
2022-11-18T10:26:03.666Z,9.757352
2022-11-18T10:27:03.516Z,9.757262
2022-11-18T10:28:03.510Z,9.757231
2022-11-18T10:29:03.502Z,9.757262
2022-11-18T10:30:03.487Z,9.757079
2022-11-18T10:31:03.532Z,9.757321
2022-11-18T10:32:04.209Z,9.757271
2022-11-18T10:33:04.469Z,9.757256
2022-11-18T10:34:03.465Z,9.757260
2022-11-18T10:35:03.447Z,9.757284
2022-11-18T10:36:03.475Z,9.757308
2022-11-18T10:37:03.440Z,9.757202
2022-11-18T10:38:08.217Z,9.757224
2022-11-18T10:39:05.511Z,9.757298
2022-11-18T10:40:03.415Z,9.757269
2022-11-18T10:41:03.431Z,9.757136
2022-11-18T10:42:03.393Z,9.757325
2022-11-18T10:43:03.397Z,9.757274
2022-11-18T10:44:06.828Z,9.757267
2022-11-18T10:45:04.371Z,9.757195
2022-11-18T10:46:03.392Z,9.757165
2022-11-18T10:47:03.354Z,9.757241
2022-11-18T10:48:03.347Z,9.757180
2022-11-18T10:49:03.329Z,9.757281
2022-11-18T10:50:03.320Z,9.757383
2022-11-18T10:51:03.351Z,9.757257
2022-11-18T10:52:03.306Z,9.757273
2022-11-18T10:53:03.297Z,9.757145
2022-11-18T10:54:03.288Z,9.757228
2022-11-18T10:55:03.284Z,9.757261
2022-11-18T10:56:03.307Z,9.757203
2022-11-18T10:57:03.266Z,9.757265
2022-11-18T10:58:03.260Z,9.757343
2022-11-18T10:59:03.247Z,9.757181
2022-11-18T11:00:03.272Z,9.757211
2022-11-18T11:01:03.268Z,9.757265
2022-11-18T11:02:08.505Z,9.757229
2022-11-18T11:03:05.224Z,9.757255
2022-11-18T11:04:03.211Z,9.757283
2022-11-18T11:05:03.201Z,9.757347
2022-11-18T11:06:03.232Z,9.757338
2022-11-18T11:07:03.258Z,9.757262
2022-11-18T11:08:28.891Z,9.757184
2022-11-18T11:09:05.168Z,9.757215
2022-11-18T11:10:03.160Z,9.757281
2022-11-18T11:11:03.194Z,9.757191
2022-11-18T11:12:03.144Z,9.757279
2022-11-18T11:13:03.130Z,9.757380
2022-11-18T11:14:03.127Z,9.757435
2022-11-18T11:15:03.135Z,9.757380
2022-11-18T11:16:03.139Z,9.757562
2022-11-18T11:17:03.128Z,9.757594
2022-11-18T11:18:03.087Z,9.757277
2022-11-18T11:19:03.087Z,9.757159
2022-11-18T11:20:03.078Z,9.757159
2022-11-18T11:21:03.104Z,9.757159
2022-11-18T11:22:03.055Z,9.757159
2022-11-18T11:23:03.070Z,9.757159
2022-11-18T11:24:03.042Z,9.757412
2022-11-18T11:25:03.047Z,9.757380
2022-11-18T11:28:20.232Z,9.757480
2022-11-18T11:29:04.997Z,9.757763
2022-11-18T11:30:02.993Z,9.757763
2022-11-18T11:31:02.983Z,9.757860
2022-11-18T11:32:03.025Z,9.758020
2022-11-18T11:33:02.968Z,9.758020
2022-11-18T11:34:02.951Z,9.757695
2022-11-18T11:35:02.951Z,9.757629
2022-11-18T11:36:02.927Z,9.757330
2022-11-18T11:37:02.960Z,9.757412
2022-11-18T11:38:02.925Z,9.757463
2022-11-18T11:39:04.755Z,9.757483
2022-11-18T11:40:04.922Z,9.757596
2022-11-18T11:41:02.902Z,9.757512
2022-11-18T11:42:02.918Z,9.757313
2022-11-18T11:43:02.882Z,9.757326
2022-11-18T11:44:02.874Z,9.757368
2022-11-18T11:45:02.872Z,9.757480
2022-11-18T11:46:02.858Z,9.757328